createdAt,value
2022-08-22T00:00:35.173Z,77.9
2022-08-22T00:06:10.112Z,77.9
2022-08-22T00:11:44.863Z,78
2022-08-22T00:17:19.653Z,78
2022-08-22T00:22:55.487Z,78
2022-08-22T00:28:31.566Z,78
2022-08-22T00:34:06.266Z,78.2
2022-08-22T00:39:42.357Z,78.3
2022-08-22T00:45:18.917Z,78.4
2022-08-22T00:50:53.654Z,78.6
2022-08-22T00:56:28.429Z,78.7
2022-08-22T01:02:03.308Z,78.7
2022-08-22T01:07:39.051Z,78.7
2022-08-22T01:13:14.516Z,78.7
2022-08-22T01:19:01.866Z,78.8
2022-08-22T01:24:38.962Z,79
2022-08-22T01:30:23.649Z,79.1
2022-08-22T01:35:58.339Z,79.1
2022-08-22T01:41:34.335Z,79.1
2022-08-22T01:47:09.107Z,79.2
2022-08-22T01:52:44.940Z,79.3
2022-08-22T01:58:40.834Z,79.4
2022-08-22T02:04:17.678Z,79.4
2022-08-22T02:09:57.815Z,79.5
2022-08-22T02:15:32.696Z,79.5
2022-08-22T02:21:07.508Z,79.5
2022-08-22T02:26:43.402Z,79.6
2022-08-22T02:32:18.275Z,79.7
2022-08-22T02:37:53.537Z,79.8
2022-08-22T02:43:50.198Z,79.8
2022-08-22T02:49:27.622Z,80
2022-08-22T02:55:08.360Z,80.1
2022-08-22T03:00:43.524Z,80.1
2022-08-22T03:06:22.623Z,80.1
2022-08-22T03:11:58.237Z,80.1
2022-08-22T03:17:34.500Z,80.2
2022-08-22T03:23:16.765Z,80.2
2022-08-22T03:29:00.355Z,80.3
2022-08-22T03:34:35.526Z,80.4
2022-08-22T03:40:19.427Z,80.4
2022-08-22T03:45:55.347Z,80.5
2022-08-22T03:51:31.114Z,80.5
2022-08-22T03:57:05.952Z,80.5
2022-08-22T04:02:44.492Z,80.6
2022-08-22T04:08:26.515Z,80.7
2022-08-22T04:14:01.809Z,80.7
2022-08-22T04:19:36.522Z,80.8
2022-08-22T04:25:11.155Z,80.9
2022-08-22T04:30:45.906Z,80.9
2022-08-22T04:36:20.668Z,81
2022-08-22T04:42:33.571Z,80.9
2022-08-22T04:48:06.443Z,81
2022-08-22T04:53:42.560Z,81.1
2022-08-22T04:59:17.239Z,81.2
2022-08-22T05:04:52.056Z,81.1
2022-08-22T05:10:26.929Z,81.1
2022-08-22T05:16:02.785Z,81.2
2022-08-22T05:21:39.388Z,81.2
2022-08-22T05:27:13.976Z,81.2
2022-08-22T05:32:49.693Z,81.2
2022-08-22T05:38:24.561Z,81.3
2022-08-22T05:44:20.985Z,81.3
2022-08-22T05:49:53.686Z,81.4
2022-08-22T05:55:28.851Z,81.6
2022-08-22T06:01:04.728Z,81.8
2022-08-22T06:06:40.576Z,82
2022-08-22T06:12:22.551Z,82.1
2022-08-22T06:17:59.128Z,81.8
2022-08-22T06:23:35.713Z,81.9
2022-08-22T06:29:10.695Z,82
2022-08-22T06:34:46.163Z,82.9
2022-08-22T06:40:21.662Z,82
2022-08-22T06:45:57.829Z,82.5
2022-08-22T06:51:32.690Z,81.4
2022-08-22T06:57:07.502Z,81.1
2022-08-22T07:02:42.765Z,80.8
2022-08-22T07:08:17.807Z,80.9
2022-08-22T07:13:53.924Z,80.2
2022-08-22T07:19:28.914Z,77.9
2022-08-22T07:25:03.738Z,77.4
2022-08-22T07:30:40.742Z,77.1
2022-08-22T07:36:16.856Z,75.9
2022-08-22T07:42:13.357Z,74.9
2022-08-22T07:47:53.699Z,76
2022-08-22T07:53:29.702Z,74.4
2022-08-22T07:59:13.368Z,73.1
2022-08-22T08:04:49.596Z,71.3
2022-08-22T08:10:28.173Z,72.3
2022-08-22T08:16:04.443Z,72.2
2022-08-22T08:21:40.144Z,72.3
2022-08-22T08:27:15.673Z,72.5
2022-08-22T08:33:18.576Z,71.8
2022-08-22T08:39:02.876Z,70.8
2022-08-22T08:44:59.412Z,72.8
2022-08-22T08:50:32.524Z,72.6
2022-08-22T08:56:11.071Z,72.7
2022-08-22T09:01:55.437Z,72.5
2022-08-22T09:07:35.517Z,72
2022-08-22T09:13:13.662Z,70.4
2022-08-22T09:18:48.735Z,68.7
2022-08-22T09:24:23.834Z,71.7
2022-08-22T09:30:00.183Z,72.7
2022-08-22T09:35:39.183Z,72.6
2022-08-22T09:41:15.039Z,73.6
2022-08-22T09:46:49.966Z,72.1
2022-08-22T09:52:37.090Z,71
2022-08-22T09:58:19.303Z,73.7
2022-08-22T10:03:57.446Z,74.6
2022-08-22T10:09:33.619Z,74.9
2022-08-22T10:15:09.396Z,75
2022-08-22T10:20:45.175Z,75.1
2022-08-22T10:26:26.173Z,75.3
2022-08-22T10:32:10.847Z,75.1
2022-08-22T10:37:51.078Z,75
2022-08-22T10:44:03.922Z,74.4
2022-08-22T10:49:38.127Z,74.4
2022-08-22T10:55:13.656Z,74.6
2022-08-22T11:00:50.910Z,74.9
2022-08-22T11:06:26.743Z,75.1
2022-08-22T11:12:04.900Z,75.3
2022-08-22T11:17:54.491Z,74.9
2022-08-22T11:23:29.897Z,74.9
2022-08-22T11:29:14.530Z,75.6
2022-08-22T11:34:50.431Z,76.3
2022-08-22T11:40:26.553Z,76.3
2022-08-22T11:46:05.358Z,75.9
2022-08-22T11:51:42.054Z,76.1
2022-08-22T11:57:35.040Z,75.5
2022-08-22T12:03:14.086Z,74.9
2022-08-22T12:08:49.249Z,75.3
2022-08-22T12:14:27.276Z,75.3
2022-08-22T12:20:19.331Z,75.1
2022-08-22T12:25:56.023Z,75.3
2022-08-22T12:31:36.416Z,75.6
2022-08-22T12:37:13.854Z,75.3
2022-08-22T12:43:11.142Z,75.4
2022-08-22T12:48:47.903Z,75
2022-08-22T12:54:23.599Z,75.1
2022-08-22T13:00:01.722Z,75
2022-08-22T13:05:41.377Z,75.6
2022-08-22T13:11:24.162Z,75.9
2022-08-22T13:16:59.560Z,75.8
2022-08-22T13:23:02.215Z,74.4
2022-08-22T13:28:48.087Z,73.6
2022-08-22T13:35:01.961Z,73.2
2022-08-22T13:41:08.148Z,72.5
2022-08-22T13:47:14.473Z,72.3
2022-08-22T13:52:55.452Z,71.3
2022-08-22T13:58:30.449Z,71.3
2022-08-22T14:04:32.341Z,71.5
2022-08-22T14:10:15.852Z,71.7
2022-08-22T14:15:53.154Z,71.8
2022-08-22T14:21:27.958Z,72
2022-08-22T14:27:16.679Z,71.4
2022-08-22T14:32:56.440Z,70.8
2022-08-22T14:38:35.300Z,70.6
2022-08-22T14:44:33.333Z,70.6
2022-08-22T14:50:08.253Z,70.9
2022-08-22T14:55:47.402Z,70.9
2022-08-22T15:01:33.270Z,71.1
2022-08-22T15:07:14.057Z,71.5
2022-08-22T15:12:52.507Z,71.3
2022-08-22T15:18:27.257Z,71
2022-08-22T15:24:02.615Z,70.9
2022-08-22T15:29:38.139Z,70.4
2022-08-22T15:35:18.103Z,70.6
2022-08-22T15:40:55.774Z,70.3
2022-08-22T15:46:30.608Z,70.3
2022-08-22T15:52:11.577Z,70.2
2022-08-22T15:57:51.337Z,70.1
2022-08-22T16:03:27.935Z,70.1
2022-08-22T16:09:04.859Z,70.2
2022-08-22T16:14:39.587Z,67.5
2022-08-22T16:20:20.403Z,65.4
2022-08-22T16:25:57.723Z,65.9
2022-08-22T16:31:39.996Z,67.9
2022-08-22T16:37:15.136Z,68.2
2022-08-22T16:43:12.152Z,65.2
2022-08-22T16:48:45.031Z,58.1
2022-08-22T16:54:19.781Z,63.1
2022-08-22T16:59:54.576Z,63.9
2022-08-22T17:05:30.752Z,66.2
2022-08-22T17:11:05.528Z,67.1
2022-08-22T17:16:45.030Z,66.3
2022-08-22T17:22:29.752Z,65.9
2022-08-22T17:28:06.573Z,66.4
2022-08-22T17:33:41.440Z,67.4
2022-08-22T17:39:16.146Z,68.6
2022-08-22T17:45:13.283Z,69.9
2022-08-22T17:50:49.336Z,71.5
2022-08-22T17:56:30.464Z,71.9
2022-08-22T18:02:05.436Z,73.5
2022-08-22T18:07:40.481Z,72.8
2022-08-22T18:13:15.187Z,73.7
2022-08-22T18:18:50.978Z,75
2022-08-22T18:24:33.198Z,74.3
2022-08-22T18:30:09.492Z,76.2
2022-08-22T18:35:50.611Z,77.1
2022-08-22T18:41:31.865Z,78
2022-08-22T18:47:07.271Z,80.3
2022-08-22T18:52:44.650Z,80.6
2022-08-22T18:58:24.977Z,80.8
2022-08-22T19:03:59.724Z,81.4
2022-08-22T19:09:35.494Z,81.4
2022-08-22T19:15:10.378Z,81.7
2022-08-22T19:20:45.180Z,81.5
2022-08-22T19:26:20.030Z,82.5
2022-08-22T19:31:55.690Z,82.6
2022-08-22T19:37:34.532Z,82.8
2022-08-22T19:43:31.137Z,83.9
2022-08-22T19:49:03.894Z,84.8
2022-08-22T19:54:38.619Z,85.2
2022-08-22T20:00:14.493Z,85.7
2022-08-22T20:05:58.678Z,85.9
2022-08-22T20:12:19.683Z,85.1
2022-08-22T20:24:45.690Z,84.9
2022-08-22T20:30:25.092Z,85.5
2022-08-22T20:36:29.372Z,86
2022-08-22T20:42:05.213Z,85.6
2022-08-22T20:47:45.366Z,83.7
2022-08-22T20:54:15.163Z,82.7
2022-08-22T20:59:51.368Z,82.3
2022-08-22T21:05:26.279Z,82.1
2022-08-22T21:11:01.086Z,81.9
2022-08-22T21:16:35.885Z,81.8
2022-08-22T21:22:10.819Z,81.8
2022-08-22T21:27:45.566Z,81.7
2022-08-22T21:33:24.330Z,81.6
2022-08-22T21:39:00.430Z,81.6
2022-08-22T21:45:00.204Z,81.4
2022-08-22T21:50:33.295Z,81.5
2022-08-22T21:56:09.135Z,81.4
2022-08-22T22:01:46.348Z,81.4
2022-08-22T22:07:24.465Z,81.4
2022-08-22T22:12:59.391Z,81.4
2022-08-22T22:18:34.285Z,81.4
2022-08-22T22:24:09.347Z,81.5
2022-08-22T22:29:45.136Z,81.6
2022-08-22T22:35:19.863Z,81.6
2022-08-22T22:40:54.829Z,81.7
2022-08-22T22:46:30.952Z,81.7
2022-08-22T22:52:11.843Z,81.8
2022-08-22T22:57:51.160Z,81.8
2022-08-22T23:03:38.144Z,81.9
2022-08-22T23:09:14.691Z,82
2022-08-22T23:14:52.624Z,82.1
2022-08-22T23:20:27.472Z,82.1
2022-08-22T23:26:02.496Z,82.2
2022-08-22T23:31:37.704Z,82.3
2022-08-22T23:37:12.482Z,82.4
2022-08-22T23:43:09.082Z,82.4
2022-08-22T23:48:41.681Z,82.6
2022-08-22T23:54:16.307Z,82.6
2022-08-22T23:59:58.674Z,82.7
